createdAt,value
2018-12-06T00:00:19.302Z,1008.94
2018-12-06T00:02:12.210Z,1008.92
2018-12-06T00:03:12.215Z,1008.88
2018-12-06T00:05:05.120Z,1008.86
2018-12-06T00:06:05.132Z,1008.85
2018-12-06T00:07:58.516Z,1008.80
2018-12-06T00:08:58.527Z,1008.82
2018-12-06T00:10:51.509Z,1008.80
2018-12-06T00:11:51.443Z,1008.80
2018-12-06T00:13:44.334Z,1008.78
2018-12-06T00:14:44.349Z,1008.75
2018-12-06T00:16:37.252Z,1008.73
2018-12-06T00:17:37.256Z,1008.73
2018-12-06T00:19:30.657Z,1008.71
2018-12-06T00:20:30.670Z,1008.72
2018-12-06T00:22:25.067Z,1008.70
2018-12-06T00:23:25.071Z,1008.72
2018-12-06T00:25:17.983Z,1008.72
2018-12-06T00:26:17.986Z,1008.75
2018-12-06T00:28:10.878Z,1008.70
2018-12-06T00:29:10.894Z,1008.71
2018-12-06T00:31:03.826Z,1008.71
2018-12-06T00:32:03.799Z,1008.72
2018-12-06T00:33:57.198Z,1008.77
2018-12-06T00:34:57.213Z,1008.79
2018-12-06T00:36:50.146Z,1008.78
2018-12-06T00:37:50.140Z,1008.79
2018-12-06T00:39:43.045Z,1008.81
2018-12-06T00:40:43.054Z,1008.77
2018-12-06T00:42:35.966Z,1008.74
2018-12-06T00:43:35.976Z,1008.75
2018-12-06T00:45:29.372Z,1008.76
2018-12-06T00:46:29.375Z,1008.76
2018-12-06T00:48:22.274Z,1008.76
2018-12-06T00:49:22.285Z,1008.79
2018-12-06T00:51:15.193Z,1008.78
2018-12-06T00:52:15.198Z,1008.78
2018-12-06T00:54:08.099Z,1008.74
2018-12-06T00:55:08.110Z,1008.72
2018-12-06T00:57:01.035Z,1008.73
2018-12-06T00:58:01.023Z,1008.75
2018-12-06T00:59:53.981Z,1008.68
2018-12-06T01:00:53.929Z,1008.69
2018-12-06T01:02:46.830Z,1008.69
2018-12-06T01:03:46.837Z,1008.65
2018-12-06T01:05:39.738Z,1008.70
2018-12-06T01:06:39.746Z,1008.71
2018-12-06T01:08:32.671Z,1008.70
2018-12-06T01:09:32.659Z,1008.63
2018-12-06T01:11:26.120Z,1008.65
2018-12-06T01:12:26.102Z,1008.63
2018-12-06T01:14:18.992Z,1008.61
2018-12-06T01:15:19.012Z,1008.63
2018-12-06T01:17:11.916Z,1008.59
2018-12-06T01:18:11.930Z,1008.61
2018-12-06T01:20:05.331Z,1008.64
2018-12-06T01:21:05.334Z,1008.63
2018-12-06T01:22:58.240Z,1008.63
2018-12-06T01:23:58.247Z,1008.61
2018-12-06T01:25:51.654Z,1008.62
2018-12-06T01:26:51.658Z,1008.62
2018-12-06T01:28:44.565Z,1008.63
2018-12-06T01:29:44.580Z,1008.63
2018-12-06T01:31:37.479Z,1008.60
2018-12-06T01:32:37.487Z,1008.56
2018-12-06T01:34:30.401Z,1008.55
2018-12-06T01:35:30.420Z,1008.54
2018-12-06T01:37:23.309Z,1008.53
2018-12-06T01:38:23.311Z,1008.48
2018-12-06T01:40:16.711Z,1008.45
2018-12-06T01:41:16.720Z,1008.47
2018-12-06T01:43:09.626Z,1008.41
2018-12-06T01:44:09.629Z,1008.35
2018-12-06T01:46:02.531Z,1008.34
2018-12-06T01:47:02.538Z,1008.34
2018-12-06T01:48:55.437Z,1008.33
2018-12-06T01:49:55.450Z,1008.31
2018-12-06T01:51:48.847Z,1008.30
2018-12-06T01:52:48.853Z,1008.29
2018-12-06T01:54:41.757Z,1008.28
2018-12-06T01:55:41.771Z,1008.25
2018-12-06T01:57:34.721Z,1008.21
2018-12-06T01:58:34.696Z,1008.20
2018-12-06T02:00:27.595Z,1008.11
2018-12-06T02:01:27.606Z,1008.11
2018-12-06T02:03:20.530Z,1008.08
2018-12-06T02:04:20.517Z,1008.07
2018-12-06T02:06:14.443Z,1008.08
2018-12-06T02:07:14.449Z,1008.10
2018-12-06T02:09:07.347Z,1008.10
2018-12-06T02:10:07.361Z,1008.10
2018-12-06T02:12:00.278Z,1008.05
2018-12-06T02:13:00.365Z,1008.08
2018-12-06T02:14:53.182Z,1008.04
2018-12-06T02:15:53.193Z,1008.10
2018-12-06T02:17:46.603Z,1008.06
2018-12-06T02:18:46.606Z,1008.08
2018-12-06T02:20:39.502Z,1008.08
2018-12-06T02:21:39.518Z,1008.10
2018-12-06T02:23:32.916Z,1008.08
2018-12-06T02:24:32.925Z,1008.09
2018-12-06T02:26:25.828Z,1008.07
2018-12-06T02:27:25.832Z,1008.08
2018-12-06T02:29:18.731Z,1008.08
2018-12-06T02:30:18.745Z,1008.10
2018-12-06T02:32:11.651Z,1008.05
2018-12-06T02:33:11.657Z,1008.00
2018-12-06T02:35:04.557Z,1007.95
2018-12-06T02:36:04.570Z,1007.93
2018-12-06T02:37:57.471Z,1007.94
2018-12-06T02:38:57.477Z,1007.89
2018-12-06T02:40:50.393Z,1007.91
2018-12-06T02:41:50.398Z,1007.93
2018-12-06T02:43:43.301Z,1007.97
2018-12-06T02:44:43.304Z,1007.97
2018-12-06T02:46:36.733Z,1007.96
2018-12-06T02:47:36.719Z,1007.95
2018-12-06T02:49:29.616Z,1007.95
2018-12-06T02:50:29.630Z,1007.99
2018-12-06T02:52:22.532Z,1007.96
2018-12-06T02:53:22.536Z,1008.00
2018-12-06T02:55:15.441Z,1007.96
2018-12-06T02:56:15.449Z,1007.94
2018-12-06T02:58:08.857Z,1007.92
2018-12-06T02:59:08.863Z,1007.94
2018-12-06T03:01:01.771Z,1007.92
2018-12-06T03:02:01.783Z,1007.84
2018-12-06T03:03:54.705Z,1007.90
2018-12-06T03:04:54.709Z,1007.86
2018-12-06T03:06:47.610Z,1007.85
2018-12-06T03:07:47.623Z,1007.84
2018-12-06T03:09:40.536Z,1007.79
2018-12-06T03:10:40.539Z,1007.79
2018-12-06T03:12:33.458Z,1007.81
2018-12-06T03:13:33.450Z,1007.78
2018-12-06T03:15:26.348Z,1007.76
2018-12-06T03:16:26.373Z,1007.78
2018-12-06T03:18:19.758Z,1007.74
2018-12-06T03:19:19.763Z,1007.72
2018-12-06T03:21:13.168Z,1007.70
2018-12-06T03:22:13.182Z,1007.67
2018-12-06T03:24:06.136Z,1007.70
2018-12-06T03:25:06.100Z,1007.73
2018-12-06T03:26:59.008Z,1007.73
2018-12-06T03:27:59.011Z,1007.76
2018-12-06T03:29:52.414Z,1007.77
2018-12-06T03:30:52.419Z,1007.80
2018-12-06T03:32:45.837Z,1007.82
2018-12-06T03:33:45.849Z,1007.87
2018-12-06T03:35:38.764Z,1007.87
2018-12-06T03:36:38.770Z,1007.87
2018-12-06T03:38:31.783Z,1007.88
2018-12-06T03:39:31.688Z,1007.89
2018-12-06T03:41:24.587Z,1007.89
2018-12-06T03:42:24.606Z,1007.91
2018-12-06T03:44:18.000Z,1007.89
2018-12-06T03:45:18.009Z,1007.87
2018-12-06T03:47:11.398Z,1007.88
2018-12-06T03:48:11.413Z,1007.83
2018-12-06T03:50:04.323Z,1007.82
2018-12-06T03:51:04.328Z,1007.84
2018-12-06T03:52:57.234Z,1007.87
2018-12-06T03:53:57.245Z,1007.84
2018-12-06T03:55:50.150Z,1007.80
2018-12-06T03:56:50.159Z,1007.81
2018-12-06T03:58:43.053Z,1007.81
2018-12-06T03:59:43.068Z,1007.81
2018-12-06T04:01:35.977Z,1007.86
2018-12-06T04:02:35.992Z,1007.91
2018-12-06T04:04:29.376Z,1007.88
2018-12-06T04:05:29.384Z,1007.92
2018-12-06T04:07:22.299Z,1007.92
2018-12-06T04:08:22.295Z,1007.84
2018-12-06T04:10:15.202Z,1007.85
2018-12-06T04:11:15.211Z,1007.83
2018-12-06T04:13:08.607Z,1007.83
2018-12-06T04:14:08.617Z,1007.76
2018-12-06T04:16:01.527Z,1007.77
2018-12-06T04:17:01.527Z,1007.78
2018-12-06T04:18:54.427Z,1007.75
2018-12-06T04:19:54.441Z,1007.80
2018-12-06T04:21:47.387Z,1007.75
2018-12-06T04:22:47.365Z,1007.76
2018-12-06T04:24:40.263Z,1007.77
2018-12-06T04:25:40.275Z,1007.75
2018-12-06T04:27:33.203Z,1007.86
2018-12-06T04:28:33.211Z,1007.86
2018-12-06T04:30:26.132Z,1007.91
2018-12-06T04:31:26.124Z,1007.92
2018-12-06T04:33:19.020Z,1007.90
2018-12-06T04:34:19.037Z,1007.92
2018-12-06T04:36:11.948Z,1007.90
2018-12-06T04:37:11.955Z,1007.84
2018-12-06T04:39:05.345Z,1007.81
2018-12-06T04:40:05.359Z,1007.76
2018-12-06T04:41:58.272Z,1007.75
2018-12-06T04:42:58.274Z,1007.75
2018-12-06T04:44:51.173Z,1007.71
2018-12-06T04:45:51.200Z,1007.69
2018-12-06T04:47:44.098Z,1007.55
2018-12-06T04:48:44.101Z,1007.50
2018-12-06T04:50:37.001Z,1007.56
2018-12-06T04:51:37.015Z,1007.62
2018-12-06T04:53:30.414Z,1007.67
2018-12-06T04:54:30.422Z,1007.72
2018-12-06T04:56:23.328Z,1007.79
2018-12-06T04:57:23.355Z,1007.78
2018-12-06T04:59:16.344Z,1007.83
2018-12-06T05:00:16.350Z,1007.83
2018-12-06T05:02:09.487Z,1007.77
2018-12-06T05:03:09.265Z,1007.75
2018-12-06T05:05:02.331Z,1007.77
2018-12-06T05:06:02.239Z,1007.77
2018-12-06T05:07:55.686Z,1007.86
2018-12-06T05:08:55.198Z,1007.87
2018-12-06T05:10:48.909Z,1007.93
2018-12-06T05:11:48.605Z,1007.93
2018-12-06T05:13:42.206Z,1007.94
2018-12-06T05:14:42.211Z,1007.94
2018-12-06T05:16:35.159Z,1007.96
2018-12-06T05:17:35.128Z,1007.97
2018-12-06T05:19:28.026Z,1008.01
2018-12-06T05:20:28.041Z,1008.04
2018-12-06T05:22:20.958Z,1008.05
2018-12-06T05:23:20.954Z,1008.10
2018-12-06T05:25:13.851Z,1008.06
2018-12-06T05:26:13.864Z,1008.12
2018-12-06T05:28:06.802Z,1008.14
2018-12-06T05:29:06.784Z,1008.10
2018-12-06T05:31:00.223Z,1008.07
2018-12-06T05:32:00.188Z,1008.07
2018-12-06T05:33:53.101Z,1008.06
2018-12-06T05:34:53.106Z,1008.03
2018-12-06T05:36:46.495Z,1008.06
2018-12-06T05:37:46.512Z,1008.05
2018-12-06T05:39:39.424Z,1008.13
2018-12-06T05:40:39.430Z,1008.14
2018-12-06T05:42:32.652Z,1008.20
2018-12-06T05:43:32.346Z,1008.18
2018-12-06T05:45:25.245Z,1008.21
2018-12-06T05:46:25.257Z,1008.21
2018-12-06T05:48:18.163Z,1008.23
2018-12-06T05:49:18.169Z,1008.25
2018-12-06T05:51:11.068Z,1008.24
2018-12-06T05:52:11.082Z,1008.30
2018-12-06T05:54:04.092Z,1008.35
2018-12-06T05:55:04.008Z,1008.38
2018-12-06T05:56:56.894Z,1008.41
2018-12-06T05:57:56.907Z,1008.41
2018-12-06T05:59:49.822Z,1008.43
2018-12-06T06:00:49.833Z,1008.41
2018-12-06T06:02:42.758Z,1008.35
2018-12-06T06:03:43.511Z,1008.36
2018-12-06T06:05:36.642Z,1008.39
2018-12-06T06:06:36.651Z,1008.39
2018-12-06T06:08:29.570Z,1008.38
2018-12-06T06:09:29.566Z,1008.36
2018-12-06T06:11:22.475Z,1008.36
2018-12-06T06:12:22.479Z,1008.36
2018-12-06T06:14:15.408Z,1008.33
2018-12-06T06:15:15.395Z,1008.40
2018-12-06T06:17:08.312Z,1008.40
2018-12-06T06:18:08.306Z,1008.43
2018-12-06T06:20:01.221Z,1008.45
2018-12-06T06:21:01.226Z,1008.46
2018-12-06T06:22:54.254Z,1008.48
2018-12-06T06:23:54.264Z,1008.47
2018-12-06T06:25:47.173Z,1008.49
2018-12-06T06:26:47.183Z,1008.45
2018-12-06T06:28:40.086Z,1008.44
2018-12-06T06:29:40.095Z,1008.42
2018-12-06T06:31:32.994Z,1008.39
2018-12-06T06:32:33.029Z,1008.35
2018-12-06T06:34:25.914Z,1008.32
2018-12-06T06:35:25.933Z,1008.25
2018-12-06T06:37:18.819Z,1008.21
2018-12-06T06:38:18.854Z,1008.22
2018-12-06T06:40:11.743Z,1008.22
2018-12-06T06:41:11.765Z,1008.22
2018-12-06T06:43:04.645Z,1008.26
2018-12-06T06:44:04.672Z,1008.29
2018-12-06T06:45:57.569Z,1008.28
2018-12-06T06:46:57.580Z,1008.29
2018-12-06T06:48:50.493Z,1008.31
2018-12-06T06:49:50.490Z,1008.37
2018-12-06T06:51:43.394Z,1008.38
2018-12-06T06:52:43.411Z,1008.36
2018-12-06T06:54:36.318Z,1008.39
2018-12-06T06:55:36.325Z,1008.39
2018-12-06T06:57:29.238Z,1008.44
2018-12-06T06:58:29.263Z,1008.46
2018-12-06T07:00:22.180Z,1008.53
2018-12-06T07:01:22.192Z,1008.55
2018-12-06T07:03:15.092Z,1008.59
2018-12-06T07:04:15.111Z,1008.60
2018-12-06T07:06:08.011Z,1008.67
2018-12-06T07:07:08.024Z,1008.72
2018-12-06T07:09:00.932Z,1008.79
2018-12-06T07:10:00.932Z,1008.79
2018-12-06T07:11:53.930Z,1008.85
2018-12-06T07:12:53.851Z,1008.88
2018-12-06T07:14:46.755Z,1008.93
2018-12-06T07:15:46.762Z,1008.96
2018-12-06T07:17:39.664Z,1009.01
2018-12-06T07:18:39.681Z,1009.00
2018-12-06T07:20:32.583Z,1009.04
2018-12-06T07:21:32.591Z,1009.03
2018-12-06T07:23:25.493Z,1009.06
2018-12-06T07:24:25.510Z,1009.07
2018-12-06T07:26:18.416Z,1009.03
2018-12-06T07:27:18.426Z,1009.03
2018-12-06T07:29:11.336Z,1009.08
2018-12-06T07:30:12.528Z,1009.05
2018-12-06T07:32:04.244Z,1009.11
2018-12-06T07:33:04.256Z,1009.04
2018-12-06T07:34:57.162Z,1009.04
2018-12-06T07:35:57.167Z,1008.99
2018-12-06T07:37:50.081Z,1008.94
2018-12-06T07:38:50.084Z,1008.97
2018-12-06T07:40:43.000Z,1008.97
2018-12-06T07:41:43.003Z,1008.98
2018-12-06T07:43:35.893Z,1008.97
2018-12-06T07:44:35.909Z,1008.94
2018-12-06T07:46:28.815Z,1009.04
2018-12-06T07:47:28.822Z,1009.07
2018-12-06T07:49:21.732Z,1009.13
2018-12-06T07:50:21.736Z,1009.18
2018-12-06T07:52:14.641Z,1009.19
2018-12-06T07:53:14.650Z,1009.15
2018-12-06T07:55:07.583Z,1009.15
2018-12-06T07:56:07.568Z,1009.23
2018-12-06T07:58:00.465Z,1009.26
2018-12-06T07:59:00.495Z,1009.35
2018-12-06T08:00:53.397Z,1009.37
2018-12-06T08:01:53.410Z,1009.38
2018-12-06T08:03:47.800Z,1009.43
2018-12-06T08:04:47.757Z,1009.44
2018-12-06T08:06:40.736Z,1009.47
2018-12-06T08:07:40.658Z,1009.46
2018-12-06T08:09:33.567Z,1009.41
2018-12-06T08:10:33.573Z,1009.40
2018-12-06T08:12:26.472Z,1009.37
2018-12-06T08:13:26.485Z,1009.36
2018-12-06T08:15:19.398Z,1009.44
2018-12-06T08:16:19.403Z,1009.46
2018-12-06T08:18:12.300Z,1009.48
2018-12-06T08:19:13.960Z,1009.53
2018-12-06T08:21:05.223Z,1009.54
2018-12-06T08:22:05.233Z,1009.54
2018-12-06T08:23:58.135Z,1009.48
2018-12-06T08:24:58.154Z,1009.49
2018-12-06T08:26:51.068Z,1009.40
2018-12-06T08:27:51.077Z,1009.40
2018-12-06T08:29:43.983Z,1009.36
2018-12-06T08:30:43.992Z,1009.34
2018-12-06T08:32:36.895Z,1009.35
2018-12-06T08:33:36.908Z,1009.33
2018-12-06T08:35:29.818Z,1009.30
2018-12-06T08:36:29.832Z,1009.33
2018-12-06T08:38:22.728Z,1009.28
2018-12-06T08:39:22.756Z,1009.30
2018-12-06T08:41:15.648Z,1009.31
2018-12-06T08:42:15.656Z,1009.27
2018-12-06T08:44:08.557Z,1009.30
2018-12-06T08:45:08.566Z,1009.29
2018-12-06T08:47:01.479Z,1009.28
2018-12-06T08:48:01.483Z,1009.26
2018-12-06T08:49:54.396Z,1009.25
2018-12-06T08:50:54.425Z,1009.23
2018-12-06T08:52:47.300Z,1009.28
2018-12-06T08:53:47.327Z,1009.28
2018-12-06T08:55:40.224Z,1009.29
2018-12-06T08:56:40.253Z,1009.28
2018-12-06T08:58:33.135Z,1009.30
2018-12-06T08:59:33.157Z,1009.28
2018-12-06T09:01:26.053Z,1009.36
2018-12-06T09:02:26.065Z,1009.38
2018-12-06T09:04:18.962Z,1009.40
2018-12-06T09:05:18.976Z,1009.41
2018-12-06T09:07:11.906Z,1009.40
2018-12-06T09:08:11.914Z,1009.40
2018-12-06T09:10:04.858Z,1009.34
2018-12-06T09:11:04.854Z,1009.37
2018-12-06T09:12:57.759Z,1009.40
2018-12-06T09:13:57.773Z,1009.41
2018-12-06T09:15:50.677Z,1009.43
2018-12-06T09:16:50.689Z,1009.48
2018-12-06T09:18:43.584Z,1009.53
2018-12-06T09:19:43.599Z,1009.56
2018-12-06T09:21:36.511Z,1009.66
2018-12-06T09:22:36.523Z,1009.65
2018-12-06T09:24:29.413Z,1009.65
2018-12-06T09:25:29.432Z,1009.71
2018-12-06T09:27:22.340Z,1009.59
2018-12-06T09:28:22.348Z,1009.58
2018-12-06T09:30:15.255Z,1009.57
2018-12-06T09:31:15.261Z,1009.60
2018-12-06T09:33:08.162Z,1009.66
2018-12-06T09:34:08.178Z,1009.65
2018-12-06T09:36:01.088Z,1009.67
2018-12-06T09:37:01.109Z,1009.63
2018-12-06T09:38:53.997Z,1009.64
2018-12-06T09:39:54.010Z,1009.62
2018-12-06T09:41:46.927Z,1009.57
2018-12-06T09:42:46.985Z,1009.56
2018-12-06T09:44:39.827Z,1009.55
2018-12-06T09:45:39.843Z,1009.54
2018-12-06T09:47:32.753Z,1009.51
2018-12-06T09:48:32.761Z,1009.54
2018-12-06T09:50:25.668Z,1009.54
2018-12-06T09:51:25.676Z,1009.49
2018-12-06T09:53:18.577Z,1009.54
2018-12-06T09:54:18.598Z,1009.53
2018-12-06T09:56:11.506Z,1009.55
2018-12-06T09:57:11.513Z,1009.59
2018-12-06T09:59:04.416Z,1009.62
2018-12-06T10:00:04.433Z,1009.61
2018-12-06T10:01:57.337Z,1009.56
2018-12-06T10:02:57.345Z,1009.53
2018-12-06T10:04:50.246Z,1009.40
2018-12-06T10:05:50.261Z,1009.37
2018-12-06T10:07:43.172Z,1009.37
2018-12-06T10:08:43.179Z,1009.41
2018-12-06T10:10:36.085Z,1009.45
2018-12-06T10:11:36.093Z,1009.45
2018-12-06T10:13:29.003Z,1009.45
2018-12-06T10:14:29.014Z,1009.43
2018-12-06T10:16:21.922Z,1009.43
2018-12-06T10:17:21.928Z,1009.43
2018-12-06T10:19:14.828Z,1009.46
2018-12-06T10:20:14.845Z,1009.46
2018-12-06T10:22:07.755Z,1009.43
2018-12-06T10:23:07.762Z,1009.42
2018-12-06T10:25:00.662Z,1009.38
2018-12-06T10:26:00.680Z,1009.42
2018-12-06T10:27:53.587Z,1009.41
2018-12-06T10:28:53.595Z,1009.39
2018-12-06T10:30:46.507Z,1009.30
2018-12-06T10:31:46.514Z,1009.36
2018-12-06T10:33:39.418Z,1009.36
2018-12-06T10:34:39.432Z,1009.37
2018-12-06T10:36:32.342Z,1009.45
2018-12-06T10:37:32.353Z,1009.45
2018-12-06T10:39:25.253Z,1009.43
2018-12-06T10:40:25.273Z,1009.47
2018-12-06T10:42:18.179Z,1009.49
2018-12-06T10:43:18.186Z,1009.43
2018-12-06T10:45:11.091Z,1009.47
2018-12-06T10:46:11.106Z,1009.44
2018-12-06T10:48:04.017Z,1009.45
2018-12-06T10:49:04.027Z,1009.48
2018-12-06T10:50:56.933Z,1009.43
2018-12-06T10:51:56.941Z,1009.45
2018-12-06T10:53:49.841Z,1009.39
2018-12-06T10:54:49.858Z,1009.41
2018-12-06T10:56:42.785Z,1009.42
2018-12-06T10:57:42.772Z,1009.41
2018-12-06T10:59:35.696Z,1009.40
2018-12-06T11:00:35.690Z,1009.49
2018-12-06T11:02:28.606Z,1009.56
2018-12-06T11:03:28.617Z,1009.52
2018-12-06T11:05:21.523Z,1009.49
2018-12-06T11:06:21.531Z,1009.54
2018-12-06T11:08:14.461Z,1009.54
2018-12-06T11:09:14.450Z,1009.53
2018-12-06T11:11:07.380Z,1009.51
2018-12-06T11:12:07.366Z,1009.49
2018-12-06T11:14:00.762Z,1009.53
2018-12-06T11:15:00.778Z,1009.55
2018-12-06T11:16:53.687Z,1009.60
2018-12-06T11:17:53.694Z,1009.58
2018-12-06T11:19:46.600Z,1009.61
2018-12-06T11:20:46.615Z,1009.62
2018-12-06T11:22:39.524Z,1009.62
2018-12-06T11:23:39.535Z,1009.60
2018-12-06T11:25:32.444Z,1009.61
2018-12-06T11:26:32.453Z,1009.61
2018-12-06T11:28:25.362Z,1009.60
2018-12-06T11:29:25.370Z,1009.59
2018-12-06T11:31:18.283Z,1009.55
2018-12-06T11:32:18.292Z,1009.51
2018-12-06T11:34:11.192Z,1009.46
2018-12-06T11:35:11.209Z,1009.45
2018-12-06T11:37:04.117Z,1009.50
2018-12-06T11:38:04.126Z,1009.52
2018-12-06T11:39:57.032Z,1009.53
2018-12-06T11:40:57.045Z,1009.53
2018-12-06T11:42:49.954Z,1009.50
2018-12-06T11:43:49.961Z,1009.54
2018-12-06T11:45:42.860Z,1009.52
2018-12-06T11:46:42.878Z,1009.51
2018-12-06T11:48:35.811Z,1009.52
2018-12-06T11:49:35.798Z,1009.49
2018-12-06T11:51:28.721Z,1009.49
2018-12-06T11:52:28.711Z,1009.52
2018-12-06T11:54:21.629Z,1009.54
2018-12-06T11:55:21.740Z,1009.56
2018-12-06T11:57:14.549Z,1009.55
2018-12-06T11:58:14.557Z,1009.62
2018-12-06T12:00:07.449Z,1009.66
2018-12-06T12:01:07.468Z,1009.68
2018-12-06T12:03:00.388Z,1009.66
2018-12-06T12:04:00.386Z,1009.69
2018-12-06T12:05:58.515Z,1009.76
2018-12-06T12:06:53.308Z,1009.75
2018-12-06T12:08:46.235Z,1009.79
2018-12-06T12:09:46.227Z,1009.75
2018-12-06T12:11:39.138Z,1009.75
2018-12-06T12:12:39.147Z,1009.77
2018-12-06T12:14:32.050Z,1009.75
2018-12-06T12:15:32.067Z,1009.74
2018-12-06T12:17:24.975Z,1009.73
2018-12-06T12:18:24.983Z,1009.73
2018-12-06T12:20:17.888Z,1009.70
2018-12-06T12:21:17.901Z,1009.63
2018-12-06T12:23:10.817Z,1009.66
2018-12-06T12:24:10.823Z,1009.66
2018-12-06T12:26:03.729Z,1009.60
2018-12-06T12:27:03.741Z,1009.59
2018-12-06T12:28:56.659Z,1009.55
2018-12-06T12:29:56.663Z,1009.56
2018-12-06T12:31:49.577Z,1009.50
2018-12-06T12:32:49.585Z,1009.47
2018-12-06T12:34:42.490Z,1009.48
2018-12-06T12:35:42.505Z,1009.53
2018-12-06T12:37:35.621Z,1009.52
2018-12-06T12:38:35.629Z,1009.54
2018-12-06T12:40:28.532Z,1009.57
2018-12-06T12:41:28.547Z,1009.54
2018-12-06T12:43:21.452Z,1009.54
2018-12-06T12:44:21.463Z,1009.54
2018-12-06T12:46:14.364Z,1009.53
2018-12-06T12:47:14.382Z,1009.50
2018-12-06T12:49:07.291Z,1009.46
2018-12-06T12:50:07.299Z,1009.54
2018-12-06T12:52:00.210Z,1009.53
2018-12-06T12:53:00.217Z,1009.50
2018-12-06T12:54:53.120Z,1009.58
2018-12-06T12:55:53.137Z,1009.55
2018-12-06T12:57:46.047Z,1009.55
2018-12-06T12:58:46.062Z,1009.53
2018-12-06T13:00:38.961Z,1009.57
2018-12-06T13:01:38.978Z,1009.59
2018-12-06T13:03:31.889Z,1009.61
2018-12-06T13:04:31.899Z,1009.67
2018-12-06T13:06:24.799Z,1009.71
2018-12-06T13:07:24.818Z,1009.71
2018-12-06T13:09:17.731Z,1009.77
2018-12-06T13:10:17.739Z,1009.75
2018-12-06T13:12:10.647Z,1009.77
2018-12-06T13:13:10.659Z,1009.79
2018-12-06T13:15:03.558Z,1009.83
2018-12-06T13:16:03.578Z,1009.82
2018-12-06T13:17:56.491Z,1009.77
2018-12-06T13:18:56.497Z,1009.74
2018-12-06T13:20:49.412Z,1009.70
2018-12-06T13:21:49.420Z,1009.70
2018-12-06T13:23:42.326Z,1009.64
2018-12-06T13:24:42.339Z,1009.61
2018-12-06T13:26:35.250Z,1009.57
2018-12-06T13:27:35.257Z,1009.52
2018-12-06T13:29:28.165Z,1009.56
2018-12-06T13:30:28.181Z,1009.56
2018-12-06T13:32:21.092Z,1009.57
2018-12-06T13:33:21.100Z,1009.59
2018-12-06T13:35:14.021Z,1009.68
2018-12-06T13:36:14.017Z,1009.69
2018-12-06T13:38:06.927Z,1009.69
2018-12-06T13:39:06.943Z,1009.66
2018-12-06T13:40:59.856Z,1009.57
2018-12-06T13:41:59.865Z,1009.53
2018-12-06T13:43:52.769Z,1009.50
2018-12-06T13:44:52.783Z,1009.51
2018-12-06T13:46:45.701Z,1009.50
2018-12-06T13:47:45.704Z,1009.43
2018-12-06T13:49:38.674Z,1009.49
2018-12-06T13:50:38.668Z,1009.47
2018-12-06T13:52:31.587Z,1009.50
2018-12-06T13:53:31.584Z,1009.49
2018-12-06T13:55:24.496Z,1009.48
2018-12-06T13:56:24.504Z,1009.52
2018-12-06T13:58:17.423Z,1009.52
2018-12-06T13:59:17.427Z,1009.53
2018-12-06T14:01:10.653Z,1009.54
2018-12-06T14:02:10.358Z,1009.59
2018-12-06T14:04:03.250Z,1009.62
2018-12-06T14:05:03.269Z,1009.61
2018-12-06T14:06:56.186Z,1009.66
2018-12-06T14:07:56.189Z,1009.66
2018-12-06T14:09:49.090Z,1009.76
2018-12-06T14:10:49.107Z,1009.73
2018-12-06T14:12:42.019Z,1009.75
2018-12-06T14:13:42.024Z,1009.80
2018-12-06T14:15:34.929Z,1009.74
2018-12-06T14:16:34.971Z,1009.75
2018-12-06T14:18:27.867Z,1009.70
2018-12-06T14:19:27.881Z,1009.68
2018-12-06T14:21:20.779Z,1009.79
2018-12-06T14:22:20.788Z,1009.74
2018-12-06T14:24:13.693Z,1009.75
2018-12-06T14:25:13.704Z,1009.71
2018-12-06T14:27:06.617Z,1009.68
2018-12-06T14:28:06.642Z,1009.70
2018-12-06T14:29:59.531Z,1009.65
2018-12-06T14:30:59.546Z,1009.65
2018-12-06T14:32:52.460Z,1009.69
2018-12-06T14:33:52.467Z,1009.69
2018-12-06T14:35:45.370Z,1009.75
2018-12-06T14:36:45.385Z,1009.73
2018-12-06T14:38:38.296Z,1009.73
2018-12-06T14:39:38.308Z,1009.68
2018-12-06T14:41:31.220Z,1009.65
2018-12-06T14:42:31.228Z,1009.66
2018-12-06T14:44:24.149Z,1009.61
2018-12-06T14:45:24.169Z,1009.63
2018-12-06T14:47:17.078Z,1009.68
2018-12-06T14:48:17.091Z,1009.66
2018-12-06T14:50:09.993Z,1009.72
2018-12-06T14:51:10.006Z,1009.73
2018-12-06T14:53:02.921Z,1009.84
2018-12-06T14:54:02.929Z,1009.85
2018-12-06T14:55:55.829Z,1009.85
2018-12-06T14:56:55.846Z,1009.85
2018-12-06T14:58:48.761Z,1009.87
2018-12-06T14:59:48.767Z,1009.83
2018-12-06T15:01:41.674Z,1009.90
2018-12-06T15:02:41.690Z,1009.89
2018-12-06T15:04:35.594Z,1009.85
2018-12-06T15:05:35.608Z,1009.85
2018-12-06T15:07:28.530Z,1009.79
2018-12-06T15:08:28.527Z,1009.82
2018-12-06T15:10:21.446Z,1009.77
2018-12-06T15:11:21.443Z,1009.78
2018-12-06T15:13:14.377Z,1009.76
2018-12-06T15:14:14.368Z,1009.76
2018-12-06T15:16:07.287Z,1009.79
2018-12-06T15:17:07.293Z,1009.78
2018-12-06T15:19:00.215Z,1009.83
2018-12-06T15:20:00.213Z,1009.86
2018-12-06T15:21:53.114Z,1009.84
2018-12-06T15:22:53.130Z,1009.86
2018-12-06T15:24:46.045Z,1009.86
2018-12-06T15:25:46.053Z,1009.85
2018-12-06T15:27:38.963Z,1009.88
2018-12-06T15:28:38.969Z,1009.90
2018-12-06T15:30:31.875Z,1009.91
2018-12-06T15:31:31.892Z,1009.91
2018-12-06T15:33:24.807Z,1009.96
2018-12-06T15:34:24.818Z,1009.98
2018-12-06T15:36:17.717Z,1009.95
2018-12-06T15:37:17.733Z,1009.96
2018-12-06T15:39:10.655Z,1009.92
2018-12-06T15:40:10.681Z,1009.94
2018-12-06T15:42:03.567Z,1009.98
2018-12-06T15:43:03.590Z,1009.99
2018-12-06T15:44:56.502Z,1009.97
2018-12-06T15:45:56.495Z,1010.00
2018-12-06T15:47:49.405Z,1009.97
2018-12-06T15:48:49.421Z,1009.97
2018-12-06T15:50:42.331Z,1009.89
2018-12-06T15:51:42.369Z,1009.87
2018-12-06T15:53:35.253Z,1009.87
2018-12-06T15:54:35.266Z,1009.86
2018-12-06T15:56:28.164Z,1009.82
2018-12-06T15:57:28.181Z,1009.82
2018-12-06T15:59:21.141Z,1009.76
2018-12-06T16:00:21.102Z,1009.80
2018-12-06T16:02:14.039Z,1009.78
2018-12-06T16:03:14.046Z,1009.77
2018-12-06T16:05:06.966Z,1009.77
2018-12-06T16:06:06.973Z,1009.75
2018-12-06T16:07:59.882Z,1009.68
2018-12-06T16:08:59.895Z,1009.70
2018-12-06T16:10:52.806Z,1009.65
2018-12-06T16:11:52.812Z,1009.65
2018-12-06T16:13:45.719Z,1009.68
2018-12-06T16:14:45.736Z,1009.65
2018-12-06T16:16:45.776Z,1009.68
2018-12-06T16:17:38.669Z,1009.72
2018-12-06T16:19:31.670Z,1009.64
2018-12-06T16:20:31.593Z,1009.59
2018-12-06T16:22:24.518Z,1009.53
2018-12-06T16:23:24.557Z,1009.53
2018-12-06T16:25:17.425Z,1009.50
2018-12-06T16:26:17.432Z,1009.51
2018-12-06T16:28:10.334Z,1009.45
2018-12-06T16:29:10.423Z,1009.41
2018-12-06T16:31:03.340Z,1009.36
2018-12-06T16:32:03.299Z,1009.41
2018-12-06T16:33:56.195Z,1009.42
2018-12-06T16:34:56.190Z,1009.39
2018-12-06T16:36:49.126Z,1009.41
2018-12-06T16:37:49.111Z,1009.37
2018-12-06T16:39:42.019Z,1009.45
2018-12-06T16:40:42.028Z,1009.44
2018-12-06T16:42:34.929Z,1009.52
2018-12-06T16:43:34.946Z,1009.52
2018-12-06T16:45:27.874Z,1009.50
2018-12-06T16:46:27.957Z,1009.55
2018-12-06T16:48:20.788Z,1009.51
2018-12-06T16:49:20.802Z,1009.52
2018-12-06T16:51:13.710Z,1009.54
2018-12-06T16:52:13.719Z,1009.51
2018-12-06T16:54:06.632Z,1009.55
2018-12-06T16:55:06.644Z,1009.55
2018-12-06T16:56:59.555Z,1009.55
2018-12-06T16:57:59.626Z,1009.56
2018-12-06T16:59:53.096Z,1009.62
2018-12-06T17:00:53.173Z,1009.67
2018-12-06T17:02:45.992Z,1009.63
2018-12-06T17:03:45.996Z,1009.61
2018-12-06T17:05:38.906Z,1009.59
2018-12-06T17:06:38.930Z,1009.63
2018-12-06T17:08:31.818Z,1009.62
2018-12-06T17:09:31.849Z,1009.65
2018-12-06T17:11:24.821Z,1009.61
2018-12-06T17:12:24.913Z,1009.60
2018-12-06T17:14:18.039Z,1009.60
2018-12-06T17:15:18.871Z,1009.59
2018-12-06T17:17:10.984Z,1009.56
2018-12-06T17:18:10.998Z,1009.55
2018-12-06T17:20:03.928Z,1009.52
2018-12-06T17:21:03.924Z,1009.45
2018-12-06T17:22:57.056Z,1009.40
2018-12-06T17:23:56.831Z,1009.39
2018-12-06T17:25:49.767Z,1009.32